Time;durP1;ratioP1;P1;durP2;ratioP2;P2;SDS_P1;SDS_P2;PMS_P1;PMS_P2;Temp;Humidity;BMP_temperature;BMP_pressure;BME280_temperature;BME280_humidity;BME280_pressure;Samples;Min_cycle;Max_cycle;Signal;HPM_P1;HPM_P2
2022/03/31 00:00:36;;;;;;;10.77;2.93;;;;;;;15.42;56.59;98157.91;5057703;28;20175;-86
2022/03/31 00:03:04;;;;;;;4.47;2.10;;;;;;;15.47;56.35;98151.28;5074366;28;20171;-90
2022/03/31 00:05:30;;;;;;;3.83;2.03;;;;;;;15.51;55.84;98157.13;5057330;28;20650;-90
2022/03/31 00:07:57;;;;;;;16.10;2.50;;;;;;;15.39;56.44;98153.72;5056853;28;20783;-89
2022/03/31 00:10:27;;;;;;;6.13;2.83;;;;;;;15.34;56.44;98156.78;5056607;28;20192;-89
2022/03/31 00:12:54;;;;;;;7.70;3.90;;;;;;;15.41;56.20;98161.53;5057189;28;20202;-91
2022/03/31 00:15:21;;;;;;;4.83;2.50;;;;;;;15.65;55.18;98159.38;5074041;28;20175;-89
2022/03/31 00:17:46;;;;;;;7.27;3.10;;;;;;;15.60;55.04;98146.59;5074163;28;20184;-91
2022/03/31 00:20:15;;;;;;;8.30;2.83;;;;;;;15.53;55.47;98142.81;5073861;28;20175;-92
2022/03/31 00:22:41;;;;;;;4.70;2.20;;;;;;;15.63;55.07;98137.56;5073809;28;20181;-89
2022/03/31 00:25:08;;;;;;;11.07;2.70;;;;;;;15.73;54.60;98119.91;5073747;28;20183;-90
2022/03/31 00:27:35;;;;;;;6.80;2.67;;;;;;;15.66;54.62;98130.19;5056192;28;20187;-90
2022/03/31 00:30:02;;;;;;;10.80;3.10;;;;;;;15.63;54.40;98129.63;5073656;28;20193;-92
2022/03/31 00:32:28;;;;;;;11.13;2.67;;;;;;;15.57;54.59;98135.44;5073915;28;20257;-90
2022/03/31 00:34:53;;;;;;;10.87;2.10;;;;;;;15.55;54.97;98132.09;5056249;28;20631;-89
2022/03/31 00:37:19;;;;;;;9.80;2.73;;;;;;;15.57;54.55;98130.16;5073477;28;20209;-87
2022/03/31 00:39:44;;;;;;;15.27;3.40;;;;;;;15.58;54.27;98131.84;5073447;28;20181;-89
2022/03/31 00:42:10;;;;;;;10.80;3.07;;;;;;;15.62;53.99;98133.22;5073441;28;20180;-88
2022/03/31 00:44:49;;;;;;;8.20;2.87;;;;;;;15.61;53.52;98127.13;5073835;28;20191;-93
2022/03/31 00:47:15;;;;;;;11.30;2.80;;;;;;;15.43;55.08;98130.53;5056237;28;20179;-88
2022/03/31 00:49:41;;;;;;;15.30;3.77;;;;;;;15.57;54.41;98115.16;5055816;28;20186;-89
2022/03/31 00:52:17;;;;;;;15.90;2.60;;;;;;;15.52;54.62;98127.09;5073856;28;20193;-92
2022/03/31 00:54:43;;;;;;;8.80;2.87;;;;;;;15.43;54.25;98127.88;5074165;28;20567;-91
2022/03/31 00:57:10;;;;;;;13.50;3.27;;;;;;;15.62;54.28;98123.50;5073791;28;20203;-89
2022/03/31 00:59:36;;;;;;;6.00;1.90;;;;;;;15.59;54.72;98122.97;5073283;28;20204;-89
2022/03/31 01:02:03;;;;;;;5.47;1.90;;;;;;;15.62;55.16;98130.59;5073240;28;20171;-86
2022/03/31 01:04:29;;;;;;;10.40;3.33;;;;;;;15.62;55.57;98117.38;5055269;28;20189;-88
2022/03/31 01:06:55;;;;;;;7.23;2.90;;;;;;;15.54;56.67;98125.19;5055095;28;20191;-87
2022/03/31 01:09:21;;;;;;;10.43;3.53;;;;;;;15.54;57.50;98125.19;5055684;28;20175;-87
2022/03/31 01:11:46;;;;;;;12.40;3.40;;;;;;;15.50;57.82;98121.13;5072947;28;20186;-89
2022/03/31 01:14:13;;;;;;;7.63;3.17;;;;;;;15.58;57.57;98118.63;5055512;28;20207;-87
2022/03/31 01:16:39;;;;;;;6.13;2.63;;;;;;;15.46;58.86;98111.81;5055429;28;20648;-94
2022/03/31 01:19:06;;;;;;;6.40;3.70;;;;;;;15.36;59.28;98106.47;5055699;28;20226;-93
2022/03/31 01:21:43;;;;;;;15.87;4.17;;;;;;;15.47;59.30;98110.81;5073289;28;20174;-89
2022/03/31 01:24:12;;;;;;;21.60;4.10;;;;;;;15.39;59.62;98122.88;5073035;28;20175;-92
2022/03/31 01:26:38;;;;;;;9.00;3.47;;;;;;;15.48;59.26;98115.16;5055402;28;20193;-88
2022/03/31 01:29:05;;;;;;;10.60;3.47;;;;;;;15.50;59.67;98124.59;5055443;28;20487;-89
2022/03/31 01:31:31;;;;;;;9.40;3.40;;;;;;;15.50;59.45;98127.25;5073776;28;20174;-89
2022/03/31 01:33:57;;;;;;;9.33;2.93;;;;;;;15.45;59.62;98131.22;5072838;28;20205;-91
2022/03/31 01:36:24;;;;;;;5.87;2.33;;;;;;;15.47;59.77;98139.88;5055610;28;20621;-88
2022/03/31 01:38:49;;;;;;;7.67;3.43;;;;;;;15.21;61.52;98129.78;5072886;28;20178;-87
2022/03/31 01:41:15;;;;;;;17.30;3.53;;;;;;;15.23;62.48;98129.63;5072780;28;20273;-91
2022/03/31 01:43:41;;;;;;;10.77;3.57;;;;;;;15.33;62.29;98130.47;5055232;28;20194;-90
2022/03/31 01:46:08;;;;;;;6.53;3.40;;;;;;;15.47;62.20;98124.88;5055922;28;20190;-85
2022/03/31 01:48:34;;;;;;;10.23;3.33;;;;;;;15.42;62.95;98132.34;5072771;28;20183;-89
2022/03/31 01:51:00;;;;;;;12.67;2.73;;;;;;;15.31;64.02;98141.19;5055436;28;20182;-87
2022/03/31 01:53:26;;;;;;;13.63;4.73;;;;;;;15.34;64.87;98119.81;5054868;28;20586;-87
2022/03/31 01:55:52;;;;;;;5.43;2.87;;;;;;;15.20;66.64;98120.16;5072913;28;20179;-88
2022/03/31 01:58:17;;;;;;;8.10;4.23;;;;;;;15.22;67.52;98104.22;5072590;28;20177;-87
2022/03/31 02:00:43;;;;;;;11.93;3.27;;;;;;;15.18;68.39;98093.06;5073149;28;20182;-88
2022/03/31 02:03:08;;;;;;;11.97;3.43;;;;;;;15.17;68.61;98091.41;5055235;28;20182;-88
2022/03/31 02:05:34;;;;;;;8.87;3.73;;;;;;;15.21;69.02;98097.25;5072819;28;20541;-91
2022/03/31 02:08:02;;;;;;;7.50;3.33;;;;;;;15.26;69.21;98101.16;5072533;28;20620;-87
2022/03/31 02:10:28;;;;;;;5.87;3.27;;;;;;;15.30;69.18;98086.72;5054787;28;20635;-90
2022/03/31 02:12:54;;;;;;;7.60;3.60;;;;;;;15.22;69.74;98086.56;5054730;28;20218;-91
2022/03/31 02:15:23;;;;;;;14.23;3.73;;;;;;;15.31;69.66;98082.28;5072693;28;20182;-89
2022/03/31 02:17:49;;;;;;;7.80;2.90;;;;;;;15.23;69.92;98059.19;5058239;28;20318;-90
2022/03/31 02:20:15;;;;;;;7.27;3.03;;;;;;;15.31;69.73;98072.56;5076560;28;20213;-89
2022/03/31 02:22:41;;;;;;;9.20;3.70;;;;;;;15.22;70.19;98061.97;5058695;28;20189;-89
2022/03/31 02:25:08;;;;;;;6.73;3.63;;;;;;;15.20;70.57;98066.53;5076339;28;20179;-89
2022/03/31 02:27:35;;;;;;;6.07;2.97;;;;;;;15.10;71.11;98077.06;5058717;28;20187;-90
2022/03/31 02:30:03;;;;;;;13.63;3.60;;;;;;;15.09;71.32;98091.25;5059147;28;20187;-89
2022/03/31 02:32:29;;;;;;;5.20;3.07;;;;;;;14.98;72.29;98077.31;5058519;28;20195;-90
2022/03/31 02:34:54;;;;;;;14.93;3.73;;;;;;;15.15;71.47;98064.31;5076236;28;20179;-88
2022/03/31 02:37:20;;;;;;;15.40;3.63;;;;;;;14.97;72.24;98065.91;5076344;28;20187;-89
2022/03/31 02:39:45;;;;;;;6.13;3.07;;;;;;;14.99;72.36;98063.97;5058645;28;20269;-90
2022/03/31 02:42:11;;;;;;;15.07;3.73;;;;;;;14.97;72.96;98070.38;5075961;28;20173;-87
2022/03/31 02:44:40;;;;;;;15.00;4.17;;;;;;;14.89;73.53;98076.31;5058145;28;20178;-91
2022/03/31 02:47:06;;;;;;;13.57;3.07;;;;;;;14.94;72.93;98075.91;5058223;28;20352;-86
2022/03/31 02:49:33;;;;;;;16.17;3.63;;;;;;;15.07;72.49;98073.88;5075724;28;20216;-86
2022/03/31 02:52:00;;;;;;;10.87;4.23;;;;;;;15.00;73.05;98070.94;5058276;28;20179;-91
2022/03/31 02:57:09;;;;;;;14.07;5.50;;;;;;;15.03;72.69;98094.44;5076118;28;20523;-89
2022/03/31 02:59:35;;;;;;;16.00;3.50;;;;;;;15.04;73.38;98080.25;5075439;28;20174;-88
2022/03/31 03:02:00;;;;;;;17.00;4.50;;;;;;;15.04;73.05;98051.22;5058202;28;20182;-88
2022/03/31 03:04:27;;;;;;;17.00;4.03;;;;;;;15.01;73.92;98043.59;5057744;28;20174;-90
2022/03/31 03:06:52;;;;;;;12.13;3.40;;;;;;;15.04;73.75;98061.78;5057628;28;20271;-88
2022/03/31 03:09:18;;;;;;;12.67;5.10;;;;;;;15.10;73.72;98077.06;5057646;28;20219;-87
2022/03/31 03:11:43;;;;;;;13.80;4.37;;;;;;;15.02;74.16;98066.34;5075149;28;20234;-88
2022/03/31 03:14:12;;;;;;;5.27;3.13;;;;;;;14.99;74.32;98058.69;5057765;28;20205;-89
2022/03/31 03:16:38;;;;;;;6.13;3.17;;;;;;;15.06;74.41;98048.47;5057485;28;20181;-85
2022/03/31 03:19:04;;;;;;;8.67;2.87;;;;;;;15.17;73.83;98067.63;5058246;28;20211;-86
2022/03/31 03:21:30;;;;;;;16.00;4.90;;;;;;;15.10;74.44;98085.00;5075070;28;20603;-93
2022/03/31 03:23:58;;;;;;;23.47;4.27;;;;;;;15.10;74.12;98069.16;5057491;28;20194;-89
2022/03/31 03:26:24;;;;;;;12.73;3.63;;;;;;;15.16;73.89;98065.16;5057651;28;20206;-90
2022/03/31 03:28:49;;;;;;;13.50;4.60;;;;;;;15.17;73.56;98070.28;5074395;28;20624;-89
2022/03/31 03:31:15;;;;;;;15.03;4.97;;;;;;;15.22;73.35;98086.56;5075181;28;20178;-88
2022/03/31 03:33:41;;;;;;;9.30;3.73;;;;;;;15.30;73.51;98070.88;5057513;28;20205;-92
2022/03/31 03:36:12;;;;;;;16.17;3.70;;;;;;;15.28;73.58;98075.47;5057657;28;20182;-91
2022/03/31 03:38:41;;;;;;;6.00;3.37;;;;;;;15.44;73.10;98077.56;5057266;28;20626;-90
2022/03/31 03:41:11;;;;;;;9.10;4.20;;;;;;;15.56;72.40;98065.13;5057524;28;20186;-93
2022/03/31 03:43:37;;;;;;;7.33;3.73;;;;;;;15.71;71.57;98063.72;5075190;28;20197;-91
2022/03/31 03:46:03;;;;;;;10.43;3.33;;;;;;;15.78;71.05;98052.47;5056934;28;20255;-89
2022/03/31 03:48:29;;;;;;;9.63;3.83;;;;;;;15.74;71.20;98058.19;5057064;28;20179;-89
2022/03/31 03:50:55;;;;;;;14.37;3.47;;;;;;;15.60;71.58;98083.19;5074872;28;20745;-90
2022/03/31 03:53:21;;;;;;;21.97;5.27;;;;;;;15.55;71.94;98077.47;5057095;28;20203;-92
2022/03/31 03:55:47;;;;;;;10.97;4.10;;;;;;;15.62;71.53;98070.66;5057025;28;20178;-89
2022/03/31 03:58:13;;;;;;;9.87;4.90;;;;;;;15.61;71.46;98068.19;5056902;28;20517;-91
2022/03/31 04:00:38;;;;;;;15.30;4.03;;;;;;;15.68;71.20;98066.66;5074419;28;20190;-93
2022/03/31 04:03:05;;;;;;;18.43;3.80;;;;;;;15.71;71.11;98063.72;5056939;28;20204;-91
2022/03/31 04:05:30;;;;;;;10.60;3.33;;;;;;;15.61;71.72;98068.19;5074457;28;20179;-87
2022/03/31 04:07:56;;;;;;;15.10;4.17;;;;;;;15.74;71.30;98064.31;5074604;28;20179;-87
2022/03/31 04:10:21;;;;;;;13.33;3.57;;;;;;;15.79;70.98;98071.81;5074042;28;20230;-89
2022/03/31 04:12:47;;;;;;;17.93;4.00;;;;;;;15.59;71.74;98078.06;5073904;28;20225;-90
2022/03/31 04:15:15;;;;;;;15.77;4.40;;;;;;;15.79;71.17;98064.72;5074034;28;20258;-89
2022/03/31 04:17:42;;;;;;;20.30;4.77;;;;;;;15.68;71.41;98049.00;5074230;28;20219;-88
2022/03/31 04:20:08;;;;;;;7.33;3.57;;;;;;;15.45;72.34;98063.41;5074508;28;20199;-89
2022/03/31 04:22:37;;;;;;;14.40;4.17;;;;;;;15.43;73.19;98053.94;5074142;28;20531;-90
2022/03/31 04:25:04;;;;;;;11.13;4.77;;;;;;;15.54;72.62;98051.22;5056529;28;20182;-90
2022/03/31 04:27:29;;;;;;;15.97;3.83;;;;;;;15.45;73.44;98057.28;5073819;28;20270;-91
2022/03/31 04:29:55;;;;;;;26.20;4.30;;;;;;;15.52;72.78;98058.44;5056577;28;20270;-90
2022/03/31 04:32:20;;;;;;;14.30;4.90;;;;;;;15.49;72.94;98048.97;5074100;28;20534;-90
2022/03/31 04:34:46;;;;;;;16.37;3.97;;;;;;;15.62;72.29;98056.63;5074064;28;20182;-89
2022/03/31 04:37:11;;;;;;;5.10;2.77;;;;;;;15.61;72.43;98055.81;5055983;28;20194;-91
2022/03/31 04:39:37;;;;;;;10.27;3.90;;;;;;;15.49;72.94;98059.53;5073229;28;20627;-89
2022/03/31 04:42:02;;;;;;;16.23;4.33;;;;;;;15.56;72.83;98050.13;5073533;28;20540;-89
2022/03/31 04:44:37;;;;;;;8.73;4.93;;;;;;;15.62;72.35;98056.63;5073515;28;20180;-91
2022/03/31 04:47:07;;;;;;;16.87;4.43;;;;;;;15.62;72.63;98048.69;5055997;28;20174;-88
2022/03/31 04:49:35;;;;;;;15.47;5.20;;;;;;;15.74;72.08;98047.63;5073714;28;20640;-90
2022/03/31 04:52:01;;;;;;;22.77;4.43;;;;;;;15.73;71.95;98054.69;5073420;28;20188;-90
2022/03/31 04:54:27;;;;;;;11.63;4.67;;;;;;;15.78;72.05;98059.56;5073190;28;20199;-89
2022/03/31 04:56:52;;;;;;;13.17;3.60;;;;;;;15.97;71.08;98043.69;5073198;28;20180;-91
2022/03/31 04:59:21;;;;;;;18.73;5.13;;;;;;;15.95;71.11;98043.00;5073421;28;20675;-88
2022/03/31 05:01:47;;;;;;;12.37;3.80;;;;;;;15.89;71.60;98047.03;5073554;28;20184;-88
2022/03/31 05:04:14;;;;;;;14.00;5.20;;;;;;;15.86;71.61;98041.19;5073501;28;20168;-89
2022/03/31 05:06:40;;;;;;;18.43;4.00;;;;;;;15.84;71.82;98046.63;5073777;28;20218;-88
2022/03/31 05:09:05;;;;;;;11.00;3.77;;;;;;;15.91;71.60;98047.75;5073140;28;20187;-88
2022/03/31 05:11:40;;;;;;;6.60;3.33;;;;;;;15.75;72.40;98057.19;5073192;28;20264;-90
2022/03/31 05:14:06;;;;;;;18.40;3.83;;;;;;;15.84;72.13;98059.00;5056098;28;20210;-90
2022/03/31 05:16:31;;;;;;;16.17;3.90;;;;;;;15.89;72.18;98062.06;5073289;28;20167;-91
2022/03/31 05:18:57;;;;;;;9.70;3.13;;;;;;;16.09;71.08;98071.63;5055433;28;20198;-87
2022/03/31 05:21:22;;;;;;;13.70;4.27;;;;;;;15.99;71.33;98073.47;5073048;28;20560;-91
2022/03/31 05:23:48;;;;;;;13.30;5.23;;;;;;;16.04;71.18;98076.50;5072939;28;20175;-88
2022/03/31 05:26:17;;;;;;;15.53;3.33;;;;;;;16.15;70.29;98060.50;5056102;28;20179;-92
2022/03/31 05:28:42;;;;;;;6.37;3.33;;;;;;;16.02;70.47;98054.69;5072922;28;20184;-90
2022/03/31 05:31:08;;;;;;;12.53;4.07;;;;;;;16.16;70.23;98067.47;5072917;28;20169;-88
2022/03/31 05:33:34;;;;;;;11.87;3.10;;;;;;;16.19;69.65;98064.56;5055442;28;20713;-90
2022/03/31 05:36:01;;;;;;;16.30;3.20;;;;;;;16.09;69.21;98069.00;5055520;28;20549;-90
2022/03/31 05:38:27;;;;;;;11.07;4.27;;;;;;;16.26;68.86;98059.53;5055562;28;20196;-86
2022/03/31 05:40:53;;;;;;;8.20;3.23;;;;;;;16.29;68.69;98075.09;5055162;28;20194;-91
2022/03/31 05:43:18;;;;;;;11.70;3.67;;;;;;;16.32;68.50;98077.47;5055376;28;20180;-88
2022/03/31 05:45:43;;;;;;;9.77;3.17;;;;;;;16.32;68.33;98069.53;5055718;28;20187;-88
2022/03/31 05:48:09;;;;;;;10.50;3.90;;;;;;;16.47;68.00;98068.94;5072724;28;20537;-90
2022/03/31 05:50:34;;;;;;;17.20;4.27;;;;;;;16.47;67.79;98054.88;5055437;28;20273;-88
2022/03/31 05:53:00;;;;;;;7.83;4.23;;;;;;;16.50;67.40;98058.09;5076643;28;20193;-89
2022/03/31 05:55:25;;;;;;;8.77;3.77;;;;;;;16.40;67.89;98057.25;5076595;28;20181;-88
2022/03/31 05:57:51;;;;;;;6.53;3.57;;;;;;;16.49;67.85;98068.78;5059308;28;20188;-87
2022/03/31 06:00:19;;;;;;;13.87;3.77;;;;;;;16.47;67.94;98074.22;5059218;28;20190;-89
2022/03/31 06:02:48;;;;;;;14.37;4.07;;;;;;;16.42;68.23;98075.63;5076765;28;20227;-89
2022/03/31 06:05:15;;;;;;;10.97;3.63;;;;;;;16.50;68.12;98063.38;5076557;28;20188;-85
2022/03/31 06:07:43;;;;;;;13.60;4.10;;;;;;;16.71;67.33;98065.00;5058759;28;20602;-92
2022/03/31 06:10:09;;;;;;;13.17;3.53;;;;;;;16.65;67.63;98068.22;5058760;28;20211;-88
2022/03/31 06:12:35;;;;;;;15.03;4.60;;;;;;;16.62;67.19;98060.56;5076491;28;20173;-87
2022/03/31 06:15:01;;;;;;;10.03;3.33;;;;;;;16.74;66.54;98076.13;5076160;28;20627;-86
2022/03/31 06:17:27;;;;;;;9.03;3.93;;;;;;;16.54;66.28;98077.16;5058463;28;20213;-88
2022/03/31 06:19:52;;;;;;;7.27;2.90;;;;;;;16.56;66.07;98077.88;5058811;28;20184;-89
2022/03/31 06:22:18;;;;;;;8.27;3.13;;;;;;;16.53;65.60;98073.66;5076337;28;20256;-87
2022/03/31 06:24:43;;;;;;;13.23;4.70;;;;;;;16.48;66.12;98075.06;5076327;28;20526;-87
2022/03/31 06:27:09;;;;;;;10.43;3.70;;;;;;;16.47;66.14;98079.53;5058384;28;20180;-87
2022/03/31 06:29:35;;;;;;;15.80;3.43;;;;;;;16.53;66.10;98083.44;5058284;28;20336;-88
2022/03/31 06:32:02;;;;;;;15.37;4.10;;;;;;;16.59;65.86;98091.63;5058298;28;20224;-88
2022/03/31 06:34:28;;;;;;;21.20;4.17;;;;;;;16.61;65.35;98101.25;5075725;28;20200;-86
2022/03/31 06:36:55;;;;;;;13.43;4.20;;;;;;;16.55;65.05;98100.84;5075859;28;20554;-85
2022/03/31 06:39:21;;;;;;;11.60;3.53;;;;;;;16.64;65.01;98095.66;5076312;28;20580;-87
2022/03/31 06:41:46;;;;;;;16.23;3.77;;;;;;;16.66;65.35;98101.66;5058526;28;20253;-89
2022/03/31 06:44:16;;;;;;;22.80;3.83;;;;;;;16.61;65.58;98099.44;5058084;28;20211;-87
2022/03/31 06:46:42;;;;;;;9.73;3.37;;;;;;;16.64;65.38;98093.03;5058387;28;20181;-88
2022/03/31 06:49:09;;;;;;;16.83;4.60;;;;;;;16.59;65.95;98107.50;5058017;28;20610;-87
2022/03/31 06:51:35;;;;;;;13.50;3.93;;;;;;;16.82;65.49;98109.81;5075530;28;20184;-88
2022/03/31 06:54:00;;;;;;;9.17;3.47;;;;;;;16.88;65.52;98115.34;5075795;28;20208;-87
2022/03/31 06:56:29;;;;;;;13.70;4.10;;;;;;;16.82;65.34;98120.41;5058096;28;20176;-88
2022/03/31 06:58:55;;;;;;;12.80;3.50;;;;;;;16.88;64.95;98117.16;5075536;28;20188;-88
2022/03/31 07:01:21;;;;;;;8.93;4.10;;;;;;;16.86;64.49;98113.81;5075408;28;20613;-88
2022/03/31 07:03:47;;;;;;;15.20;3.13;;;;;;;16.92;64.40;98126.50;5074377;28;20186;-88
2022/03/31 07:06:12;;;;;;;20.33;3.93;;;;;;;16.86;65.69;98121.78;5075324;28;20262;-87
2022/03/31 07:08:38;;;;;;;7.50;3.10;;;;;;;16.90;65.29;98125.81;5058449;28;20177;-88
2022/03/31 07:11:04;;;;;;;13.53;3.57;;;;;;;17.10;65.41;98127.41;5057830;28;20578;-90
2022/03/31 07:13:30;;;;;;;10.90;3.57;;;;;;;17.12;64.82;98122.78;5057519;28;20215;-89
2022/03/31 07:15:56;;;;;;;13.87;3.93;;;;;;;17.15;66.46;98112.75;5057873;28;20607;-89
2022/03/31 07:18:27;;;;;;;26.00;8.53;;;;;;;17.30;66.82;98117.53;5075181;28;20251;-90
2022/03/31 07:20:52;;;;;;;12.27;4.00;;;;;;;17.01;67.35;98115.84;5058382;28;20173;-90
2022/03/31 07:23:20;;;;;;;10.80;3.53;;;;;;;16.83;67.78;98137.94;5074972;28;20591;-87
2022/03/31 07:25:46;;;;;;;13.67;4.13;;;;;;;16.74;69.01;98128.22;5075380;28;20647;-89
2022/03/31 07:28:11;;;;;;;8.43;3.23;;;;;;;16.80;68.70;98117.88;5075202;28;20177;-88
2022/03/31 07:30:37;;;;;;;7.60;3.40;;;;;;;16.90;67.98;98133.75;5075423;28;20192;-87
2022/03/31 07:33:03;;;;;;;10.67;3.93;;;;;;;16.93;68.05;98151.97;5057380;28;20203;-87
2022/03/31 07:35:33;;;;;;;10.60;3.27;;;;;;;17.11;67.09;98150.25;5074826;28;20184;-89
2022/03/31 07:38:03;;;;;;;7.83;2.43;;;;;;;17.18;66.67;98165.41;5057966;28;20612;-88
2022/03/31 07:40:28;;;;;;;8.03;2.93;;;;;;;17.27;67.05;98173.47;5074663;28;20176;-86
2022/03/31 07:42:55;;;;;;;18.57;4.50;;;;;;;17.31;65.74;98185.44;5074909;28;20262;-84
2022/03/31 07:45:28;;;;;;;7.80;2.37;;;;;;;17.37;65.28;98185.69;5074817;28;20211;-89
2022/03/31 07:47:53;;;;;;;11.53;2.37;;;;;;;17.48;63.76;98182.84;5075140;28;20165;-87
2022/03/31 07:50:19;;;;;;;18.23;3.90;;;;;;;17.65;64.35;98168.84;5056813;28;20545;-86
2022/03/31 07:52:45;;;;;;;11.87;2.53;;;;;;;18.03;64.19;98166.94;5074614;28;20183;-89
2022/03/31 07:55:12;;;;;;;11.47;3.90;;;;;;;18.37;62.35;98159.94;5074398;28;20613;-88
2022/03/31 07:57:38;;;;;;;7.43;2.53;;;;;;;18.84;60.56;98163.16;5056722;28;20676;-87
2022/03/31 08:00:06;;;;;;;11.43;3.50;;;;;;;19.15;58.88;98166.16;5074838;28;20183;-88
2022/03/31 08:02:31;;;;;;;14.53;3.73;;;;;;;19.48;56.36;98176.00;5074225;28;20267;-89
2022/03/31 08:04:57;;;;;;;13.47;3.40;;;;;;;19.87;56.36;98163.84;5056817;28;20196;-90
2022/03/31 08:07:22;;;;;;;13.60;2.70;;;;;;;19.90;53.48;98152.88;5056843;28;20208;-89
2022/03/31 08:09:48;;;;;;;8.73;2.53;;;;;;;19.93;51.96;98146.41;5056510;28;20181;-90
2022/03/31 08:12:13;;;;;;;7.37;2.40;;;;;;;20.17;51.96;98147.28;5057432;28;20272;-91
2022/03/31 08:14:39;;;;;;;14.30;2.50;;;;;;;20.14;50.20;98133.47;5074187;28;20644;-88
2022/03/31 08:17:05;;;;;;;19.43;3.37;;;;;;;20.12;48.80;98136.31;5074777;28;20298;-89
2022/03/31 08:19:32;;;;;;;15.40;3.50;;;;;;;20.13;49.21;98131.78;5057118;28;20616;-90
2022/03/31 08:22:00;;;;;;;16.03;3.17;;;;;;;19.93;49.70;98128.63;5074067;28;20295;-92
2022/03/31 08:24:28;;;;;;;19.33;3.03;;;;;;;19.90;49.88;98112.97;5056776;28;20542;-91
2022/03/31 08:26:54;;;;;;;13.87;2.60;;;;;;;19.84;49.49;98116.28;5055814;28;20188;-89
2022/03/31 08:29:19;;;;;;;7.20;2.63;;;;;;;19.88;49.66;98122.97;5056195;28;20651;-90
2022/03/31 08:31:45;;;;;;;9.87;3.07;;;;;;;20.06;50.00;98139.59;5073895;28;20230;-90
2022/03/31 08:34:11;;;;;;;14.67;4.07;;;;;;;20.06;49.58;98138.78;5074283;28;20232;-87
2022/03/31 08:36:40;;;;;;;13.53;2.90;;;;;;;20.05;48.85;98137.94;5073978;28;20681;-87
2022/03/31 08:39:06;;;;;;;7.93;2.30;;;;;;;19.93;49.60;98133.94;5056306;28;20574;-88
2022/03/31 08:41:34;;;;;;;6.43;2.07;;;;;;;19.82;49.81;98144.03;5073652;28;20259;-89
2022/03/31 08:44:00;;;;;;;10.10;3.70;;;;;;;19.81;49.90;98151.19;5056244;28;20181;-88
2022/03/31 08:46:34;;;;;;;14.73;3.87;;;;;;;19.91;50.49;98135.09;5055947;28;20176;-88
2022/03/31 08:49:03;;;;;;;13.97;4.03;;;;;;;19.89;50.97;98119.28;5073501;28;20176;-90
2022/03/31 08:51:29;;;;;;;8.27;2.63;;;;;;;19.83;52.24;98111.97;5073403;28;20192;-89
2022/03/31 08:53:55;;;;;;;17.23;3.97;;;;;;;19.82;52.27;98117.44;5073639;28;20208;-89
2022/03/31 08:56:20;;;;;;;18.37;2.97;;;;;;;19.80;51.88;98120.28;5073964;28;20181;-90
2022/03/31 08:58:46;;;;;;;21.40;3.53;;;;;;;19.81;51.73;98123.78;5055913;28;20185;-88
2022/03/31 09:01:13;;;;;;;15.23;3.07;;;;;;;19.53;52.72;98125.84;5073294;28;20620;-87
2022/03/31 09:03:39;;;;;;;17.73;3.00;;;;;;;19.58;53.77;98107.56;5073227;28;20169;-88
2022/03/31 09:06:07;;;;;;;18.03;3.27;;;;;;;19.60;53.79;98105.63;5073743;28;20251;-87
2022/03/31 09:08:34;;;;;;;12.30;3.07;;;;;;;19.49;54.67;98113.88;5073372;28;20694;-86
2022/03/31 09:11:00;;;;;;;16.90;3.17;;;;;;;19.50;54.04;98091.59;5073261;28;20203;-89
2022/03/31 09:13:40;;;;;;;17.10;2.40;;;;;;;19.39;55.18;98108.69;5073148;28;20231;-88
2022/03/31 09:16:11;;;;;;;13.73;2.83;;;;;;;19.36;55.25;98110.81;5073794;28;20161;-88
2022/03/31 09:18:38;;;;;;;13.00;2.93;;;;;;;19.63;54.87;98105.25;5072193;28;20276;-90
2022/03/31 09:21:11;;;;;;;17.33;3.70;;;;;;;19.59;55.89;98085.34;5055390;28;20185;-89
2022/03/31 09:23:42;;;;;;;14.20;2.97;;;;;;;19.86;55.58;98085.06;5055588;28;20246;-90
2022/03/31 09:26:12;;;;;;;13.17;3.57;;;;;;;19.90;55.18;98073.09;5072979;28;20628;-86
2022/03/31 09:28:45;;;;;;;22.80;4.43;;;;;;;19.77;53.36;98069.25;5072890;28;20210;-91
2022/03/31 09:31:12;;;;;;;11.07;2.50;;;;;;;19.58;54.42;98065.03;5073325;28;20244;-87
2022/03/31 09:33:48;;;;;;;12.17;3.40;;;;;;;19.65;55.56;98074.06;5054337;28;20212;-88
2022/03/31 09:36:24;;;;;;;9.33;3.93;;;;;;;19.93;54.77;98067.44;5055209;28;20184;-86
2022/03/31 09:38:59;;;;;;;17.77;2.53;;;;;;;19.85;55.41;98078.06;5073507;28;20176;-88
2022/03/31 09:41:28;;;;;;;13.10;2.90;;;;;;;19.57;56.23;98060.75;5072840;28;20176;-89
2022/03/31 09:43:55;;;;;;;19.53;2.57;;;;;;;19.63;55.87;98053.94;5072768;28;20169;-85
2022/03/31 09:46:25;;;;;;;8.67;2.53;;;;;;;19.74;55.57;98078.38;5072820;28;20177;-87
2022/03/31 09:48:53;;;;;;;9.37;2.93;;;;;;;19.71;56.00;98068.06;5055213;28;20177;-88
2022/03/31 09:51:20;;;;;;;19.20;4.77;;;;;;;19.65;55.72;98065.25;5073104;28;20181;-87
2022/03/31 09:53:51;;;;;;;13.67;3.00;;;;;;;19.70;56.06;98070.91;5072602;28;20203;-88
2022/03/31 09:56:19;;;;;;;14.20;3.73;;;;;;;19.71;56.41;98084.00;5073040;28;20280;-87
2022/03/31 09:58:46;;;;;;;5.57;2.10;;;;;;;19.73;56.62;98086.53;5072975;28;20185;-87
2022/03/31 10:01:17;;;;;;;14.63;2.80;;;;;;;19.70;56.28;98084.19;5072702;28;20185;-90
2022/03/31 10:03:43;;;;;;;12.80;3.53;;;;;;;19.38;56.97;98084.94;5055523;28;20200;-93
2022/03/31 10:06:09;;;;;;;15.47;2.30;;;;;;;19.42;57.55;98089.75;5072923;28;20176;-90
2022/03/31 10:08:42;;;;;;;13.50;3.10;;;;;;;19.23;57.48;98102.47;5072822;28;20204;-85
2022/03/31 10:11:11;;;;;;;19.30;4.20;;;;;;;19.42;57.17;98099.56;5072739;28;20193;-90
2022/03/31 10:14:03;;;;;;;19.17;3.13;;;;;;;19.61;57.26;98092.16;5073215;28;20193;-89
2022/03/31 10:16:53;;;;;;;8.77;3.33;;;;;;;19.88;56.42;98091.03;5055031;28;20545;-91
2022/03/31 10:19:28;;;;;;;15.00;3.80;;;;;;;19.99;55.74;98104.03;5054979;28;20613;-87
2022/03/31 10:22:08;;;;;;;12.77;3.63;;;;;;;19.93;55.64;98117.97;5073111;28;20188;-88
2022/03/31 10:24:44;;;;;;;13.77;2.73;;;;;;;19.69;56.53;98112.59;5073067;28;20157;-91
2022/03/31 10:27:33;;;;;;;14.77;3.60;;;;;;;19.83;56.44;98101.34;5073253;28;20168;-90
2022/03/31 10:30:17;;;;;;;15.47;3.20;;;;;;;20.01;56.27;98102.03;5071874;28;20212;-87
2022/03/31 10:33:01;;;;;;;11.97;2.53;;;;;;;19.99;54.98;98117.31;5054838;28;20188;-89
2022/03/31 10:35:38;;;;;;;12.53;4.13;;;;;;;19.82;55.81;98134.25;5073237;28;20157;-90
2022/03/31 10:38:23;;;;;;;7.07;3.53;;;;;;;19.63;56.29;98125.72;5073227;28;20161;-90
2022/03/31 10:40:59;;;;;;;20.40;4.23;;;;;;;19.43;57.03;98143.75;5058669;28;20180;-90
2022/03/31 10:43:40;;;;;;;19.80;3.40;;;;;;;19.30;57.47;98144.16;5076536;28;20157;-93
2022/03/31 10:46:20;;;;;;;16.23;3.67;;;;;;;19.35;56.77;98139.19;5058458;28;20188;-86
2022/03/31 10:48:51;;;;;;;16.87;2.90;;;;;;;19.28;56.96;98130.22;5058358;28;20219;-90
2022/03/31 10:51:18;;;;;;;15.63;2.63;;;;;;;19.33;56.70;98133.22;5076096;28;20177;-85
2022/03/31 10:53:50;;;;;;;13.03;3.83;;;;;;;19.18;56.83;98120.69;5075797;28;20283;-90
2022/03/31 10:56:24;;;;;;;9.50;3.60;;;;;;;19.25;56.71;98119.91;5075925;28;20170;-89
2022/03/31 10:58:56;;;;;;;12.97;3.90;;;;;;;18.86;57.90;98116.88;5076566;28;20154;-91
2022/03/31 11:01:25;;;;;;;13.37;3.43;;;;;;;18.94;57.68;98118.75;5058010;28;20188;-88
2022/03/31 11:03:51;;;;;;;19.17;3.47;;;;;;;18.81;58.23;98124.50;5058081;28;20343;-85
2022/03/31 11:06:20;;;;;;;12.93;2.87;;;;;;;18.71;58.81;98102.50;5075628;28;20192;-88
2022/03/31 11:08:48;;;;;;;11.43;2.80;;;;;;;18.78;59.16;98126.63;5075868;28;20173;-89
2022/03/31 11:11:25;;;;;;;18.73;4.17;;;;;;;18.65;60.00;98131.50;5075591;28;20189;-90
2022/03/31 11:13:52;;;;;;;11.17;3.63;;;;;;;18.68;60.00;98140.00;5076176;28;20189;-90
2022/03/31 11:16:21;;;;;;;11.37;3.17;;;;;;;18.63;60.46;98155.53;5075417;28;20624;-91
2022/03/31 11:19:07;;;;;;;;;;;;;;;;;;;;;
2022/03/31 11:21:51;;;;;;;9.10;3.33;;;;;;;18.67;61.09;98145.44;5075307;28;20203;-91
2022/03/31 11:24:23;;;;;;;5.33;3.30;;;;;;;18.64;61.16;98165.16;5075945;28;20367;-89
2022/03/31 11:26:49;;;;;;;3.90;1.97;;;;;;;18.62;61.58;98139.78;5075222;28;20174;-89
2022/03/31 11:29:16;;;;;;;7.30;3.13;;;;;;;18.28;63.27;98142.28;5057561;28;20185;-91
2022/03/31 11:31:45;;;;;;;11.33;3.20;;;;;;;18.23;63.69;98120.69;5075123;28;20173;-89
2022/03/31 11:34:30;;;;;;;5.33;2.20;;;;;;;18.24;64.24;98107.28;5057488;28;20536;-91